Time;durP1;ratioP1;P1;durP2;ratioP2;P2;SDS_P1;SDS_P2;PMS_P1;PMS_P2;Temp;Humidity;BMP_temperature;BMP_pressure;BME280_temperature;BME280_humidity;BME280_pressure;Samples;Min_cycle;Max_cycle;Signal;HPM_P1;HPM_P2
2023/04/06 00:00:51;;;;;;;22.60;13.80;;;1.70;46.10;;;;;;5013973;28;20042;-73
2023/04/06 00:03:18;;;;;;;20.40;13.52;;;1.70;70.40;;;;;;5014246;28;20026;-73
2023/04/06 00:05:43;;;;;;;25.15;14.65;;;1.60;58.20;;;;;;5014016;28;20379;-73
2023/04/06 00:08:09;;;;;;;20.42;13.85;;;1.60;68.20;;;;;;5013913;28;20037;-73
2023/04/06 00:10:35;;;;;;;25.15;14.88;;;1.50;99.90;;;;;;5013492;28;20022;-74
2023/04/06 00:13:00;;;;;;;20.52;14.07;;;1.50;99.90;;;;;;5013764;28;20026;-72
2023/04/06 00:15:26;;;;;;;24.92;14.25;;;1.50;99.90;;;;;;5013615;28;20030;-73
2023/04/06 00:17:52;;;;;;;22.60;14.20;;;1.40;99.90;;;;;;5013683;28;20030;-73
2023/04/06 00:20:18;;;;;;;22.30;14.00;;;1.40;99.90;;;;;;5013573;28;20021;-73
2023/04/06 00:22:45;;;;;;;20.83;13.55;;;1.30;99.90;;;;;;5013934;28;20064;-74
2023/04/06 00:25:11;;;;;;;23.10;14.52;;;1.30;99.90;;;;;;5013289;28;20454;-72
2023/04/06 00:27:37;;;;;;;22.15;14.25;;;1.20;99.90;;;;;;5012221;28;20133;-72
2023/04/06 00:30:05;;;;;;;23.20;14.30;;;1.20;99.90;;;;;;5013441;28;20113;-73
2023/04/06 00:32:31;;;;;;;26.77;14.90;;;1.10;99.90;;;;;;5013569;28;20079;-73
2023/04/06 00:34:56;;;;;;;22.33;14.27;;;1.00;99.90;;;;;;5014134;28;20419;-72
2023/04/06 00:37:22;;;;;;;25.15;15.45;;;1.00;99.90;;;;;;5017035;28;20022;-73
2023/04/06 00:39:48;;;;;;;23.55;15.00;;;0.90;99.90;;;;;;5016829;28;20120;-73
2023/04/06 00:42:14;;;;;;;26.60;15.27;;;0.90;99.90;;;;;;5016929;28;20033;-73
2023/04/06 00:44:41;;;;;;;26.10;15.80;;;0.90;99.90;;;;;;5017187;28;20482;-73
2023/04/06 00:47:07;;;;;;;23.75;15.63;;;1.00;99.90;;;;;;5016887;28;20029;-73
2023/04/06 00:49:33;;;;;;;24.15;15.35;;;1.10;99.90;;;;;;5016328;28;20404;-73
2023/04/06 00:51:59;;;;;;;24.20;15.15;;;1.10;99.90;;;;;;5017245;28;20030;-73
2023/04/06 00:54:25;;;;;;;29.50;17.70;;;1.00;99.90;;;;;;5016916;28;20026;-72
2023/04/06 00:56:51;;;;;;;26.02;17.30;;;1.00;99.90;;;;;;5016748;28;20076;-73
2023/04/06 00:59:17;;;;;;;26.50;16.50;;;1.00;99.90;;;;;;5016557;28;20061;-73
2023/04/06 01:01:42;;;;;;;24.65;15.77;;;1.00;99.90;;;;;;5016597;28;20030;-72
2023/04/06 01:04:08;;;;;;;28.65;16.42;;;1.00;99.90;;;;;;5016588;28;20092;-73
2023/04/06 01:06:34;;;;;;;24.08;14.75;;;0.90;99.90;;;;;;5016417;28;20125;-73
2023/04/06 01:08:59;;;;;;;28.85;16.23;;;0.80;99.90;;;;;;5016141;28;20029;-73
2023/04/06 01:11:25;;;;;;;25.55;15.68;;;0.80;99.90;;;;;;5016631;28;20061;-73
2023/04/06 01:13:51;;;;;;;26.70;16.52;;;0.80;1.00;;;;;;5016787;28;20428;-74
2023/04/06 01:16:17;;;;;;;28.55;16.98;;;0.70;1.00;;;;;;5016353;28;20161;-73
2023/04/06 01:18:43;;;;;;;25.23;16.27;;;0.70;1.00;;;;;;5016281;28;20034;-73
2023/04/06 01:21:15;;;;;;;26.88;16.13;;;0.70;1.00;;;;;;5016230;28;20475;-72
2023/04/06 01:23:42;;;;;;;28.92;16.70;;;0.60;1.00;;;;;;5016631;28;20123;-73
2023/04/06 01:26:08;;;;;;;32.45;18.25;;;0.70;1.00;;;;;;5015866;28;20033;-72
2023/04/06 01:28:34;;;;;;;30.38;17.63;;;0.60;1.00;;;;;;5015454;28;20050;-72
2023/04/06 01:30:59;;;;;;;29.45;17.90;;;0.60;1.00;;;;;;5016449;28;20033;-72
2023/04/06 01:33:25;;;;;;;25.33;16.20;;;0.60;1.00;;;;;;5016061;28;20021;-72
2023/04/06 01:35:51;;;;;;;26.25;16.10;;;0.50;1.00;;;;;;5015404;28;20030;-73
2023/04/06 01:38:16;;;;;;;28.85;17.45;;;0.50;1.00;;;;;;5016125;28;20108;-72
2023/04/06 01:40:42;;;;;;;30.48;17.73;;;0.50;1.00;;;;;;5015838;28;20053;-73
2023/04/06 01:43:07;;;;;;;29.05;17.23;;;0.50;1.00;;;;;;5016276;28;20136;-73
2023/04/06 01:45:33;;;;;;;32.65;17.63;;;0.40;1.00;;;;;;5015753;28;20025;-73
2023/04/06 01:47:58;;;;;;;31.52;18.15;;;0.50;1.00;;;;;;5016127;28;20030;-72
2023/04/06 01:50:24;;;;;;;29.98;17.63;;;0.50;1.00;;;;;;5015617;28;20029;-73
2023/04/06 01:52:50;;;;;;;30.20;18.13;;;0.60;1.00;;;;;;5015549;28;20025;-74
2023/04/06 01:55:15;;;;;;;30.45;17.85;;;0.50;1.00;;;;;;5016055;28;20376;-73
2023/04/06 01:57:41;;;;;;;29.33;17.30;;;0.50;1.00;;;;;;5015758;28;20033;-73
2023/04/06 02:00:07;;;;;;;30.23;18.23;;;0.50;1.00;;;;;;5015529;28;20029;-73
2023/04/06 02:02:33;;;;;;;29.95;17.92;;;0.40;1.00;;;;;;5015916;28;20154;-73
2023/04/06 02:04:58;;;;;;;27.17;16.33;;;0.40;1.00;;;;;;5015600;28;20518;-72
2023/04/06 02:07:24;;;;;;;24.15;15.85;;;0.40;1.00;;;;;;5015518;28;20470;-72
2023/04/06 02:09:53;;;;;;;28.60;16.63;;;0.30;1.00;;;;;;5015465;28;20266;-72
2023/04/06 02:12:19;;;;;;;28.10;17.08;;;0.30;1.00;;;;;;5013783;28;20495;-73
2023/04/06 02:14:44;;;;;;;30.02;17.77;;;0.20;1.00;;;;;;5015467;28;20021;-72
2023/04/06 02:17:10;;;;;;;28.70;16.45;;;0.20;1.00;;;;;;5015106;28;20537;-72
2023/04/06 02:19:36;;;;;;;29.30;17.10;;;0.20;1.00;;;;;;5015637;28;20117;-73
2023/04/06 02:22:01;;;;;;;30.80;17.70;;;0.10;1.00;;;;;;5015120;28;20085;-73
2023/04/06 02:24:27;;;;;;;31.02;18.05;;;0.10;1.00;;;;;;5014955;28;20030;-72
2023/04/06 02:26:52;;;;;;;33.22;18.25;;;0.10;1.00;;;;;;5014808;28;20045;-72
2023/04/06 02:29:18;;;;;;;24.20;15.98;;;0.10;1.00;;;;;;5014415;28;20480;-73
2023/04/06 02:31:43;;;;;;;29.35;17.85;;;0.00;1.00;;;;;;5014681;28;20390;-72
2023/04/06 02:34:11;;;;;;;33.90;18.27;;;0.00;1.00;;;;;;5014603;28;20049;-72
2023/04/06 02:36:37;;;;;;;30.60;17.92;;;0.00;1.00;;;;;;5015288;28;20033;-72
2023/04/06 02:39:03;;;;;;;29.38;16.45;;;-0.10;1.00;;;;;;5014715;28;20038;-72
2023/04/06 02:41:28;;;;;;;31.67;18.33;;;-0.10;1.00;;;;;;5014865;28;20030;-72
2023/04/06 02:43:54;;;;;;;27.85;17.55;;;-0.10;1.00;;;;;;5014895;28;20383;-73
2023/04/06 02:46:19;;;;;;;30.55;17.65;;;-0.20;1.00;;;;;;5014917;28;20148;-72
2023/04/06 02:48:45;;;;;;;31.83;18.75;;;-0.20;1.00;;;;;;5014014;28;20029;-72
2023/04/06 02:51:11;;;;;;;30.42;17.60;;;-0.20;1.00;;;;;;5014767;28;20029;-72
2023/04/06 02:53:36;;;;;;;29.17;17.00;;;-0.20;1.00;;;;;;5014775;28;20101;-73
2023/04/06 02:56:02;;;;;;;29.88;17.85;;;-0.30;1.00;;;;;;5014641;28;20026;-73
2023/04/06 02:58:27;;;;;;;28.35;17.13;;;-0.30;1.00;;;;;;5014294;28;20064;-72
2023/04/06 03:00:53;;;;;;;28.80;17.08;;;-0.30;1.00;;;;;;5014673;28;20432;-72
2023/04/06 03:03:18;;;;;;;29.30;17.00;;;-0.30;1.00;;;;;;5014896;28;20434;-73
2023/04/06 03:05:44;;;;;;;28.65;17.23;;;-0.30;1.00;;;;;;5014640;28;20053;-72
2023/04/06 03:08:10;;;;;;;35.47;18.35;;;-0.30;2.90;;;;;;5013552;28;20034;-73
2023/04/06 03:10:35;;;;;;;27.85;16.90;;;-0.30;9.10;;;;;;5014381;28;20030;-73
2023/04/06 03:13:01;;;;;;;26.60;16.25;;;-0.30;10.30;;;;;;5014250;28;20026;-73
2023/04/06 03:15:26;;;;;;;28.45;17.02;;;-0.30;7.80;;;;;;5014486;28;20033;-73
2023/04/06 03:17:52;;;;;;;30.08;17.13;;;-0.30;5.80;;;;;;5014123;28;20124;-73
2023/04/06 03:20:17;;;;;;;30.75;17.38;;;-0.30;5.50;;;;;;5014520;28;20062;-73
2023/04/06 03:22:43;;;;;;;27.75;17.40;;;-0.30;4.70;;;;;;5014072;28;20030;-72
2023/04/06 03:25:09;;;;;;;29.38;18.65;;;-0.30;4.10;;;;;;5013976;28;20026;-73
2023/04/06 03:27:34;;;;;;;33.33;17.50;;;-0.30;8.10;;;;;;5013671;28;20077;-72
2023/04/06 03:30:00;;;;;;;28.05;17.60;;;-0.30;8.10;;;;;;5013993;28;20030;-73
2023/04/06 03:32:25;;;;;;;30.85;17.92;;;-0.20;8.70;;;;;;5013926;28;20053;-73
2023/04/06 03:34:51;;;;;;;27.58;16.08;;;-0.20;8.10;;;;;;5014444;28;20029;-73
2023/04/06 03:37:17;;;;;;;31.40;18.05;;;-0.20;4.20;;;;;;5014449;28;20026;-72
2023/04/06 03:39:42;;;;;;;31.70;18.40;;;-0.20;1.70;;;;;;5013515;28;20029;-72
2023/04/06 03:42:08;;;;;;;29.73;17.27;;;-0.20;1.00;;;;;;5013969;28;20507;-72
2023/04/06 03:44:34;;;;;;;30.10;17.05;;;-0.20;1.00;;;;;;5013681;28;20539;-72
2023/04/06 03:47:00;;;;;;;26.65;16.75;;;-0.20;1.00;;;;;;5014016;28;20040;-73
2023/04/06 03:49:25;;;;;;;30.35;17.98;;;-0.20;1.00;;;;;;5014064;28;20152;-72
2023/04/06 03:51:52;;;;;;;25.73;16.02;;;-0.20;1.00;;;;;;5013515;28;20080;-72
2023/04/06 03:54:17;;;;;;;26.13;15.68;;;-0.20;1.00;;;;;;5014001;28;20041;-73
2023/04/06 03:56:43;;;;;;;29.02;16.20;;;-0.20;1.00;;;;;;5014334;28;20026;-73
2023/04/06 03:59:09;;;;;;;25.77;16.10;;;-0.20;1.00;;;;;;5014039;28;20034;-73
2023/04/06 04:01:34;;;;;;;27.08;16.25;;;-0.20;1.00;;;;;;5013609;28;20065;-72
2023/04/06 04:04:00;;;;;;;31.65;17.17;;;-0.30;1.00;;;;;;5014489;28;20057;-73
2023/04/06 04:06:26;;;;;;;30.25;17.25;;;-0.30;1.00;;;;;;5013622;28;20034;-73
2023/04/06 04:08:51;;;;;;;30.08;16.67;;;-0.30;1.00;;;;;;5014971;28;20030;-74
2023/04/06 04:11:17;;;;;;;28.90;16.75;;;-0.30;1.00;;;;;;5017121;28;20018;-74
2023/04/06 04:13:43;;;;;;;30.52;16.20;;;-0.40;1.00;;;;;;5017738;28;20364;-74
2023/04/06 04:16:08;;;;;;;25.42;15.40;;;-0.40;1.00;;;;;;5017170;28;20032;-74
2023/04/06 04:18:34;;;;;;;27.58;16.83;;;-0.40;1.00;;;;;;5016894;28;20029;-73
2023/04/06 04:21:00;;;;;;;30.88;17.27;;;-0.50;1.00;;;;;;5017314;28;20384;-73
2023/04/06 04:23:25;;;;;;;27.40;16.80;;;-0.40;1.00;;;;;;5016850;28;20025;-74
2023/04/06 04:25:51;;;;;;;30.30;17.65;;;-0.40;1.00;;;;;;5017246;28;20488;-73
2023/04/06 04:28:16;;;;;;;30.45;17.17;;;-0.40;1.00;;;;;;5016781;28;20463;-73
2023/04/06 04:30:42;;;;;;;33.63;16.45;;;-0.40;1.00;;;;;;5017447;28;20426;-74
2023/04/06 04:33:07;;;;;;;27.52;16.90;;;-0.40;1.00;;;;;;5017593;28;20376;-73
2023/04/06 04:35:33;;;;;;;31.63;17.60;;;-0.40;1.00;;;;;;5017011;28;20037;-73
2023/04/06 04:37:59;;;;;;;26.08;16.42;;;-0.40;1.00;;;;;;5016854;28;20057;-73
2023/04/06 04:40:24;;;;;;;30.17;17.50;;;-0.40;1.00;;;;;;5017193;28;20084;-74
2023/04/06 04:42:51;;;;;;;28.08;16.65;;;-0.50;1.00;;;;;;5016996;28;20084;-73
2023/04/06 04:45:16;;;;;;;32.72;17.15;;;-0.50;1.00;;;;;;5016869;28;20121;-73
2023/04/06 04:47:42;;;;;;;27.83;16.65;;;-0.40;1.00;;;;;;5017301;28;20443;-74
2023/04/06 04:50:08;;;;;;;24.17;14.90;;;-0.40;1.00;;;;;;5017124;28;20057;-74
2023/04/06 04:52:33;;;;;;;26.45;16.17;;;-0.40;1.00;;;;;;5017072;28;20483;-74
2023/04/06 04:54:59;;;;;;;29.75;16.35;;;-0.50;1.00;;;;;;5017008;28;20026;-73
2023/04/06 04:57:24;;;;;;;31.63;16.60;;;-0.50;1.00;;;;;;5017198;28;20033;-74
2023/04/06 04:59:50;;;;;;;26.05;15.57;;;-0.50;1.00;;;;;;5017077;28;20472;-73
2023/04/06 05:02:16;;;;;;;24.85;15.00;;;-0.50;1.00;;;;;;5016730;28;20372;-73
2023/04/06 05:04:42;;;;;;;27.15;16.38;;;-0.50;1.00;;;;;;5020802;28;20030;-73
2023/04/06 05:07:09;;;;;;;26.95;15.85;;;-0.40;1.00;;;;;;5036529;28;20363;-73
2023/04/06 05:09:34;;;;;;;28.55;17.13;;;-0.40;1.00;;;;;;5035614;28;20505;-74
2023/04/06 05:12:00;;;;;;;32.42;16.92;;;-0.30;1.50;;;;;;5036170;28;20041;-73
2023/04/06 05:14:26;;;;;;;28.20;16.73;;;-0.20;5.10;;;;;;5036098;28;20025;-73
2023/04/06 05:16:53;;;;;;;31.35;17.90;;;0.00;9.20;;;;;;5036154;28;20025;-73
2023/04/06 05:19:18;;;;;;;30.85;18.48;;;0.20;10.60;;;;;;5036261;28;20036;-74
2023/04/06 05:21:44;;;;;;;31.15;17.40;;;0.50;11.50;;;;;;5035852;28;20021;-73
2023/04/06 05:24:10;;;;;;;30.73;17.88;;;0.80;2.30;;;;;;5035897;28;20079;-73
2023/04/06 05:26:35;;;;;;;25.38;15.38;;;1.20;1.00;;;;;;5035446;28;20036;-74
2023/04/06 05:29:01;;;;;;;24.50;16.17;;;1.70;1.00;;;;;;5035272;28;20053;-74
2023/04/06 05:31:27;;;;;;;29.65;15.68;;;2.20;1.00;;;;;;5036110;28;20040;-74
2023/04/06 05:33:52;;;;;;;27.38;15.82;;;2.60;99.90;;;;;;5036178;28;20375;-74
2023/04/06 05:36:18;;;;;;;26.25;15.93;;;2.70;99.90;;;;;;5035806;28;20025;-73
2023/04/06 05:38:43;;;;;;;22.73;14.93;;;2.90;1.00;;;;;;5036056;28;20021;-74
2023/04/06 05:41:09;;;;;;;24.38;15.25;;;3.10;1.00;;;;;;5035653;28;20053;-74
2023/04/06 05:43:35;;;;;;;21.70;14.45;;;3.30;99.90;;;;;;5035971;28;20034;-74
2023/04/06 05:46:00;;;;;;;25.30;15.65;;;3.60;1.00;;;;;;5035784;28;20501;-73
2023/04/06 05:48:26;;;;;;;27.90;14.68;;;3.90;1.00;;;;;;5035460;28;20029;-74
2023/04/06 05:50:51;;;;;;;27.55;14.38;;;4.40;1.00;;;;;;5035494;28;20456;-73
2023/04/06 05:53:17;;;;;;;22.85;13.40;;;4.90;99.90;;;;;;5035397;28;20093;-73
2023/04/06 05:55:43;;;;;;;19.92;13.57;;;5.90;99.90;;;;;;5035841;28;20080;-74
2023/04/06 05:58:09;;;;;;;20.35;13.55;;;6.60;99.90;;;;;;5035285;28;20025;-74
2023/04/06 06:00:35;;;;;;;20.05;12.77;;;7.60;99.90;;;;;;5035806;28;20418;-74
2023/04/06 06:03:03;;;;;;;22.42;13.25;;;9.00;99.90;;;;;;5028896;28;20034;-74
2023/04/06 06:05:29;;;;;;;19.35;13.98;;;9.20;99.90;;;;;;5030955;28;20036;-73
2023/04/06 06:07:55;;;;;;;15.77;12.25;;;9.80;10.90;;;;;;5022280;28;20034;-71
2023/04/06 06:10:21;;;;;;;18.33;12.07;;;10.50;99.90;;;;;;5020627;28;20042;-72
2023/04/06 06:12:46;;;;;;;21.63;12.85;;;10.90;99.90;;;;;;5025029;28;20506;-74
2023/04/06 06:15:12;;;;;;;17.25;12.07;;;10.70;99.90;;;;;;5029099;28;20540;-73
2023/04/06 06:17:38;;;;;;;15.55;11.48;;;11.00;99.90;;;;;;5023883;28;20033;-74
2023/04/06 06:20:07;;;;;;;15.65;11.80;;;10.80;99.90;;;;;;5034056;28;20479;-71
2023/04/06 06:22:32;;;;;;;19.27;11.82;;;10.90;99.90;;;;;;5035331;28;20494;-71
2023/04/06 06:24:58;;;;;;;15.05;11.77;;;11.20;96.50;;;;;;5019166;28;20042;-73
2023/04/06 06:27:23;;;;;;;15.45;12.00;;;11.20;99.90;;;;;;5020012;28;20191;-74
2023/04/06 06:29:49;;;;;;;16.65;12.13;;;11.50;1.00;;;;;;5024861;28;20026;-72
2023/04/06 06:32:15;;;;;;;18.40;12.27;;;12.00;1.00;;;;;;5025207;28;20159;-72
2023/04/06 06:34:40;;;;;;;16.08;12.43;;;12.60;1.00;;;;;;5029739;28;20376;-72
2023/04/06 06:37:06;;;;;;;17.92;12.00;;;12.20;1.00;;;;;;5024687;28;20390;-71
2023/04/06 06:39:32;;;;;;;17.58;10.93;;;12.30;1.00;;;;;;5040746;28;20038;-74
2023/04/06 06:42:00;;;;;;;20.60;11.80;;;12.70;1.00;;;;;;5030899;28;20083;-71
2023/04/06 06:44:26;;;;;;;15.70;11.40;;;13.30;1.00;;;;;;5017579;28;20040;-72
2023/04/06 06:46:52;;;;;;;16.60;11.68;;;13.70;1.00;;;;;;5021261;28;20116;-73
2023/04/06 06:49:18;;;;;;;17.50;11.63;;;12.90;1.00;;;;;;5017915;28;20422;-68
2023/04/06 06:51:44;;;;;;;14.63;11.48;;;12.60;1.00;;;;;;5021774;28;20075;-70
2023/04/06 06:54:09;;;;;;;16.33;11.18;;;13.40;1.00;;;;;;5031404;28;20022;-73
2023/04/06 06:56:37;;;;;;;15.30;11.38;;;13.40;1.00;;;;;;5025684;28;20036;-69
2023/04/06 06:59:03;;;;;;;18.95;11.40;;;14.00;99.90;;;;;;5020387;28;20509;-72
2023/04/06 07:01:29;;;;;;;15.02;11.18;;;14.00;99.90;;;;;;5021630;28;20038;-72
2023/04/06 07:03:55;;;;;;;15.05;11.43;;;13.40;99.90;;;;;;5025326;28;20036;-70
2023/04/06 07:06:20;;;;;;;17.02;10.73;;;14.20;99.90;;;;;;5022717;28;20072;-71
2023/04/06 07:08:46;;;;;;;14.32;10.95;;;14.90;99.90;;;;;;5022535;28;20395;-69
2023/04/06 07:11:12;;;;;;;14.00;10.32;;;14.60;99.90;;;;;;5020781;28;20112;-69
2023/04/06 07:13:37;;;;;;;14.27;10.57;;;14.40;99.90;;;;;;5022115;28;20104;-69
2023/04/06 07:16:03;;;;;;;12.15;9.52;;;16.00;99.90;;;;;;5021329;28;21795;-70
2023/04/06 07:18:29;;;;;;;16.25;9.80;;;15.60;99.90;;;;;;5021862;28;20033;-70
2023/04/06 07:20:55;;;;;;;18.15;10.10;;;15.20;99.90;;;;;;5023826;28;20538;-71
2023/04/06 07:23:20;;;;;;;13.40;9.52;;;14.60;99.90;;;;;;5013883;28;20124;-74
2023/04/06 07:25:46;;;;;;;17.15;9.63;;;15.50;99.90;;;;;;5020669;28;20040;-69
2023/04/06 07:28:12;;;;;;;17.67;10.25;;;15.30;99.90;;;;;;5027180;28;20041;-71
2023/04/06 07:30:38;;;;;;;12.70;9.90;;;15.20;99.90;;;;;;5013013;28;20383;-73
2023/04/06 07:33:05;;;;;;;15.82;9.40;;;15.10;99.90;;;;;;5019713;28;20032;-72
2023/04/06 07:35:30;;;;;;;15.43;9.80;;;15.10;99.90;;;;;;5032499;28;20038;-71
2023/04/06 07:37:56;;;;;;;14.00;9.20;;;14.90;99.90;;;;;;5028552;28;20044;-73
2023/04/06 07:40:22;;;;;;;14.50;9.27;;;16.30;99.90;;;;;;5013062;28;20095;-74
2023/04/06 07:42:48;;;;;;;12.38;9.32;;;16.30;99.90;;;;;;5019847;28;20022;-75
2023/04/06 07:45:14;;;;;;;12.77;9.85;;;16.60;99.90;;;;;;5020776;28;20025;-71
2023/04/06 07:47:40;;;;;;;12.32;9.60;;;15.90;99.90;;;;;;5030601;28;20025;-74
2023/04/06 07:50:05;;;;;;;14.10;9.18;;;16.20;99.90;;;;;;5026023;28;20026;-72
2023/04/06 07:52:31;;;;;;;13.07;8.80;;;15.70;99.90;;;;;;5026696;28;20525;-74
2023/04/06 07:54:58;;;;;;;16.08;8.68;;;15.80;99.90;;;;;;5031709;28;20103;-75
2023/04/06 07:57:23;;;;;;;10.38;8.90;;;14.80;99.90;;;;;;5022862;28;20033;-74
2023/04/06 07:59:49;;;;;;;13.30;9.13;;;14.60;99.90;;;;;;5032218;28;20030;-72
2023/04/06 08:02:15;;;;;;;17.42;8.90;;;14.60;99.90;;;;;;5026643;28;20034;-71
2023/04/06 08:04:40;;;;;;;15.35;9.43;;;14.60;99.90;;;;;;5017496;28;20065;-74
2023/04/06 08:07:06;;;;;;;13.02;9.00;;;15.00;99.90;;;;;;5017649;28;20034;-69
2023/04/06 08:09:32;;;;;;;13.52;8.93;;;14.70;99.90;;;;;;5023253;28;20037;-74
2023/04/06 08:11:58;;;;;;;14.80;8.73;;;14.60;99.90;;;;;;5028204;28;20034;-75
2023/04/06 08:14:24;;;;;;;11.65;8.95;;;15.90;99.90;;;;;;5024912;28;20029;-75
2023/04/06 08:16:49;;;;;;;14.20;9.13;;;15.90;99.90;;;;;;5034264;28;20014;-74
2023/04/06 08:19:17;;;;;;;11.32;9.10;;;16.20;99.90;;;;;;5031436;28;20065;-73
2023/04/06 08:21:43;;;;;;;14.20;9.43;;;15.50;99.90;;;;;;5031138;28;20025;-75
2023/04/06 08:24:08;;;;;;;12.35;8.75;;;15.60;99.90;;;;;;5033936;28;20037;-74
2023/04/06 08:26:34;;;;;;;12.43;9.50;;;16.20;99.90;;;;;;5033213;28;20109;-74
2023/04/06 08:29:00;;;;;;;14.40;9.00;;;15.70;99.90;;;;;;5031212;28;20095;-73
2023/04/06 08:31:26;;;;;;;10.95;9.25;;;15.60;66.10;;;;;;5038880;28;20091;-75
2023/04/06 08:33:51;;;;;;;14.27;9.48;;;15.20;1.00;;;;;;5030236;28;20365;-74
2023/04/06 08:36:22;;;;;;;14.70;9.52;;;15.00;99.90;;;;;;5022773;28;20030;-73
2023/04/06 08:38:48;;;;;;;15.85;9.68;;;15.90;1.00;;;;;;5023267;28;20029;-73
2023/04/06 08:41:14;;;;;;;14.70;10.18;;;16.10;1.00;;;;;;5036396;28;20148;-76
2023/04/06 08:43:46;;;;;;;12.85;9.43;;;16.10;1.00;;;;;;5029762;28;20059;-75
2023/04/06 08:46:12;;;;;;;14.02;9.98;;;15.80;99.90;;;;;;5024420;28;20037;-75
2023/04/06 08:48:41;;;;;;;13.40;9.20;;;15.70;99.90;;;;;;5029770;28;20040;-74
2023/04/06 08:51:08;;;;;;;15.15;9.45;;;16.40;99.90;;;;;;5018108;28;20471;-74
2023/04/06 08:53:34;;;;;;;14.55;9.73;;;15.90;99.90;;;;;;5029994;28;20022;-74
2023/04/06 08:56:00;;;;;;;13.85;9.85;;;15.80;99.90;;;;;;5045724;28;20045;-74
2023/04/06 08:58:30;;;;;;;15.82;10.27;;;15.80;99.90;;;;;;5029278;28;20048;-75
2023/04/06 09:00:56;;;;;;;12.77;10.00;;;15.50;99.90;;;;;;5036416;28;20480;-75
2023/04/06 09:03:22;;;;;;;13.70;10.25;;;16.70;99.90;;;;;;5023300;28;20030;-75
2023/04/06 09:05:48;;;;;;;18.05;10.65;;;17.70;99.90;;;;;;5023743;28;20478;-74
2023/04/06 09:08:14;;;;;;;13.18;9.90;;;17.80;99.90;;;;;;5029050;28;20033;-75
2023/04/06 09:10:41;;;;;;;13.77;10.75;;;17.30;99.90;;;;;;5024036;28;20028;-74
2023/04/06 09:13:08;;;;;;;13.50;10.38;;;16.40;99.90;;;;;;5028252;28;20393;-74
2023/04/06 09:15:33;;;;;;;14.90;10.60;;;16.80;99.90;;;;;;5025539;28;20572;-74
2023/04/06 09:17:59;;;;;;;13.68;11.13;;;16.70;99.90;;;;;;5030245;28;20022;-74
2023/04/06 09:20:26;;;;;;;14.75;10.38;;;17.60;99.90;;;;;;5022594;28;20034;-74
2023/04/06 09:22:52;;;;;;;14.05;10.38;;;18.00;99.90;;;;;;5034341;28;20025;-71
2023/04/06 09:25:22;;;;;;;19.23;11.55;;;17.90;99.90;;;;;;5031052;28;20141;-72
2023/04/06 09:27:49;;;;;;;17.73;11.75;;;18.10;99.90;;;;;;5030353;28;20499;-74
2023/04/06 09:30:16;;;;;;;16.33;11.25;;;17.50;99.90;;;;;;5029072;28;20053;-74
2023/04/06 09:32:50;;;;;;;15.55;11.20;;;18.20;99.90;;;;;;5027556;28;20076;-74
2023/04/06 09:35:16;;;;;;;14.82;11.52;;;18.40;99.90;;;;;;5024694;28;20034;-75
2023/04/06 09:37:43;;;;;;;15.52;11.93;;;18.80;99.90;;;;;;5016070;28;20033;-74
2023/04/06 09:40:09;;;;;;;16.42;12.05;;;18.50;1.00;;;;;;5024222;28;20061;-74
2023/04/06 09:42:35;;;;;;;17.55;13.20;;;18.50;99.90;;;;;;5021946;28;20099;-74
2023/04/06 09:45:03;;;;;;;14.38;12.10;;;18.70;1.00;;;;;;5024647;28;20033;-75
2023/04/06 09:47:30;;;;;;;17.23;12.55;;;19.10;99.90;;;;;;5018896;28;20033;-74
2023/04/06 09:49:58;;;;;;;20.15;13.55;;;18.20;99.90;;;;;;5026278;28;20052;-75
2023/04/06 09:52:27;;;;;;;18.15;14.15;;;17.40;1.00;;;;;;5028084;28;20032;-74
2023/04/06 09:54:58;;;;;;;20.23;15.35;;;17.50;99.90;;;;;;5026568;28;20060;-74
2023/04/06 09:57:31;;;;;;;21.30;14.23;;;17.20;99.90;;;;;;5031809;28;20033;-74
2023/04/06 10:00:09;;;;;;;17.88;14.05;;;17.50;1.00;;;;;;5030244;28;20025;-75
2023/04/06 10:03:14;;;;;;;19.02;14.60;;;18.30;1.00;;;;;;5023746;28;20046;-74
2023/04/06 10:05:46;;;;;;;21.90;14.38;;;18.20;1.00;;;;;;5017251;28;20033;-73
2023/04/06 10:08:13;;;;;;;24.70;17.80;;;17.70;99.90;;;;;;5017571;28;20038;-71
2023/04/06 10:10:40;;;;;;;25.17;17.25;;;17.80;1.00;;;;;;5021508;28;20057;-73
2023/04/06 10:13:07;;;;;;;20.98;15.32;;;17.90;1.00;;;;;;5023992;28;20022;-72
2023/04/06 10:15:33;;;;;;;20.15;15.88;;;17.50;1.00;;;;;;5023324;28;20364;-73
2023/04/06 10:18:00;;;;;;;21.50;15.63;;;16.70;1.00;;;;;;5027362;28;20079;-71
2023/04/06 10:20:49;;;;;;;24.58;16.60;;;16.80;1.00;;;;;;5024723;28;20029;-71
2023/04/06 10:23:26;;;;;;;25.83;16.73;;;17.20;1.00;;;;;;5029264;28;20650;-72
2023/04/06 10:25:54;;;;;;;22.20;16.63;;;17.40;1.00;;;;;;5020294;28;20030;-73
2023/04/06 10:28:20;;;;;;;23.88;17.00;;;17.30;1.00;;;;;;5022067;28;20428;-72
2023/04/06 10:30:46;;;;;;;20.52;15.20;;;16.60;1.00;;;;;;5032393;28;20080;-72
2023/04/06 10:33:14;;;;;;;24.77;16.17;;;16.90;1.00;;;;;;5028874;28;20083;-72
2023/04/06 10:35:39;;;;;;;22.30;15.77;;;16.50;1.00;;;;;;5028518;28;20036;-72
2023/04/06 10:38:05;;;;;;;21.75;16.35;;;16.30;1.00;;;;;;5032153;28;20018;-72
2023/04/06 10:40:31;;;;;;;24.70;16.35;;;16.10;1.00;;;;;;5031720;28;20030;-73
2023/04/06 10:43:12;;;;;;;22.65;16.67;;;16.40;1.00;;;;;;5023593;28;20060;-73
2023/04/06 10:45:38;;;;;;;22.73;16.08;;;16.90;1.00;;;;;;5023410;28;20396;-72
2023/04/06 10:48:19;;;;;;;24.23;16.58;;;16.90;1.00;;;;;;5029386;28;20029;-72
2023/04/06 10:50:48;;;;;;;24.60;16.88;;;16.90;97.60;;;;;;5020398;28;20022;-70
2023/04/06 10:53:25;;;;;;;20.17;14.60;;;17.00;90.40;;;;;;5019805;28;20030;-75
2023/04/06 10:55:52;;;;;;;23.25;14.70;;;16.60;99.90;;;;;;5020152;28;20022;-73
2023/04/06 10:58:17;;;;;;;17.00;13.45;;;16.40;99.90;;;;;;5018137;28;20088;-73
2023/04/06 11:00:47;;;;;;;18.73;12.93;;;16.20;24.90;;;;;;5023998;28;20490;-72
2023/04/06 11:03:13;;;;;;;18.58;12.82;;;16.30;13.50;;;;;;5031737;28;20079;-72
2023/04/06 11:05:45;;;;;;;18.85;13.38;;;16.20;1.00;;;;;;5025104;28;20021;-72
2023/04/06 11:08:21;;;;;;;23.80;13.60;;;16.30;1.00;;;;;;5029544;28;20033;-72
2023/04/06 11:10:49;;;;;;;22.35;13.55;;;15.80;1.00;;;;;;5028310;28;21764;-72
2023/04/06 11:13:14;;;;;;;17.65;11.63;;;15.90;1.00;;;;;;5031053;28;20040;-73
2023/04/06 11:15:40;;;;;;;20.75;12.48;;;;;;;;;;5031192;28;20029;-73
2023/04/06 11:18:06;;;;;;;19.08;12.55;;;15.60;1.00;;;;;;5033418;28;20025;-73
2023/04/06 11:20:32;;;;;;;19.83;12.48;;;14.80;1.00;;;;;;5026431;28;20088;-72
2023/04/06 11:22:59;;;;;;;17.35;12.35;;;15.00;1.00;;;;;;5027904;28;20063;-73
2023/04/06 11:25:26;;;;;;;19.00;12.70;;;15.50;1.00;;;;;;5019458;28;20018;-73
2023/04/06 11:27:52;;;;;;;21.20;13.32;;;15.40;1.00;;;;;;5027726;28;20049;-73
2023/04/06 11:30:19;;;;;;;19.00;12.40;;;15.20;1.00;;;;;;5020150;28;20050;-73
2023/04/06 11:32:45;;;;;;;16.05;11.85;;;15.10;1.00;;;;;;5028927;28;20080;-72
2023/04/06 11:35:30;;;;;;;17.70;12.98;;;15.40;1.00;;;;;;5017548;28;20030;-73
2023/04/06 11:37:56;;;;;;;18.58;11.93;;;15.20;1.00;;;;;;5015544;28;20026;-73
2023/04/06 11:40:23;;;;;;;14.90;10.45;;;15.30;1.00;;;;;;5032155;28;20075;-71
2023/04/06 11:42:53;;;;;;;17.88;12.07;;;15.10;1.00;;;;;;5027281;28;20104;-72
2023/04/06 11:45:19;;;;;;;20.50;13.18;;;15.00;1.00;;;;;;5013402;28;20064;-72
2023/04/06 11:47:45;;;;;;;21.00;12.98;;;14.60;1.00;;;;;;5021393;28;20037;-72
2023/04/06 11:50:13;;;;;;;21.30;13.45;;;14.70;1.00;;;;;;5025266;28;20515;-72
2023/04/06 11:52:40;;;;;;;19.00;12.50;;;14.90;1.00;;;;;;5032584;28;20072;-73
2023/04/06 11:55:20;;;;;;;27.33;13.23;;;15.10;1.00;;;;;;5023982;28;20472;-73
2023/04/06 11:57:46;;;;;;;22.23;13.10;;;15.40;1.00;;;;;;5027080;28;20084;-72
2023/04/06 12:00:12;;;;;;;21.45;14.35;;;15.80;1.00;;;;;;5023499;28;20455;-73
2023/04/06 12:02:38;;;;;;;22.35;14.40;;;15.30;1.00;;;;;;5026577;28;20044;-72
2023/04/06 12:05:06;;;;;;;20.55;13.98;;;15.30;1.00;;;;;;5025246;28;20057;-73
2023/04/06 12:07:32;;;;;;;23.55;14.75;;;15.40;1.00;;;;;;5032969;28;20443;-73
2023/04/06 12:09:59;;;;;;;28.00;16.17;;;15.30;1.00;;;;;;5024754;28;20059;-74
2023/04/06 12:12:25;;;;;;;25.63;16.83;;;15.00;1.00;;;;;;5031876;28;20095;-73
2023/04/06 12:14:51;;;;;;;25.92;16.58;;;15.30;1.00;;;;;;5028996;28;20029;-72
2023/04/06 12:17:16;;;;;;;26.30;16.88;;;15.50;1.00;;;;;;5027248;28;20026;-73
2023/04/06 12:19:42;;;;;;;29.73;17.75;;;15.30;1.00;;;;;;5029375;28;20030;-72
2023/04/06 12:22:07;;;;;;;25.30;15.77;;;15.20;1.00;;;;;;5022900;28;20404;-72
2023/04/06 12:24:33;;;;;;;25.70;15.77;;;14.90;1.00;;;;;;5025778;28;20030;-73
2023/04/06 12:26:59;;;;;;;28.95;16.58;;;14.90;1.00;;;;;;5027158;28;20548;-73
2023/04/06 12:29:25;;;;;;;28.33;18.15;;;15.10;1.00;;;;;;5018142;28;20026;-73
2023/04/06 12:31:50;;;;;;;28.20;17.00;;;15.20;1.00;;;;;;5018601;28;20037;-73
2023/04/06 12:34:16;;;;;;;27.55;17.30;;;15.10;1.00;;;;;;5021191;28;20372;-74